Time;durP1;ratioP1;P1;durP2;ratioP2;P2;SDS_P1;SDS_P2;PMS_P1;PMS_P2;Temp;Humidity;BMP_temperature;BMP_pressure;BME280_temperature;BME280_humidity;BME280_pressure;Samples;Min_cycle;Max_cycle;Signal;HPM_P1;HPM_P2
2021/06/17 00:01:30;;;;;;;33.00;26.73;;;;;;;19.44;81.50;99650.66;5036908;28;20037;-77
2021/06/17 00:03:55;;;;;;;43.47;33.42;;;;;;;19.35;82.30;99667.00;5043575;28;20037;-77
2021/06/17 00:06:21;;;;;;;43.67;32.92;;;;;;;19.38;81.83;99672.69;5046027;28;20033;-77
2021/06/17 00:08:46;;;;;;;36.70;28.40;;;;;;;19.38;81.50;99678.31;5051963;28;20026;-77
2021/06/17 00:11:12;;;;;;;45.53;32.42;;;;;;;19.39;81.83;99679.97;5047231;28;20048;-77
2021/06/17 00:13:38;;;;;;;43.97;31.65;;;;;;;19.33;81.79;99684.25;5043471;28;20041;-77
2021/06/17 00:16:04;;;;;;;39.25;29.27;;;;;;;19.36;81.25;99683.53;5026201;28;20033;-77
2021/06/17 00:18:30;;;;;;;40.50;30.48;;;;;;;19.34;81.44;99673.81;5045331;28;20096;-77
2021/06/17 00:20:55;;;;;;;50.72;36.50;;;;;;;19.24;82.16;99680.88;5038013;28;20083;-77
2021/06/17 00:23:21;;;;;;;53.58;37.65;;;;;;;19.16;82.56;99676.28;5048179;28;20044;-77
2021/06/17 00:25:47;;;;;;;60.08;41.33;;;;;;;19.01;83.36;99678.00;5043625;28;20032;-77
2021/06/17 00:28:12;;;;;;;51.45;36.08;;;;;;;19.02;82.96;99673.19;5043920;28;20486;-77
2021/06/17 00:30:38;;;;;;;56.85;39.53;;;;;;;19.01;82.95;99665.94;5041098;28;20036;-77
2021/06/17 00:33:04;;;;;;;73.65;46.95;;;;;;;18.82;84.05;99664.75;5029623;28;20025;-77
2021/06/17 00:35:30;;;;;;;73.65;45.78;;;;;;;18.78;83.81;99657.41;5044990;28;20060;-77
2021/06/17 00:37:56;;;;;;;64.22;42.38;;;;;;;18.76;83.98;99671.88;5028464;28;20087;-77
2021/06/17 00:40:23;;;;;;;61.63;40.92;;;;;;;18.85;83.16;99703.41;5040151;28;20063;-77
2021/06/17 00:42:49;;;;;;;58.67;39.33;;;;;;;18.82;82.79;99714.59;5038564;28;20034;-77
2021/06/17 00:45:21;;;;;;;76.18;48.40;;;;;;;18.66;84.11;99742.72;5019848;28;20084;-77
2021/06/17 00:47:46;;;;;;;53.63;36.28;;;;;;;18.86;82.32;99744.44;5046458;28;20037;-77
2021/06/17 00:50:12;;;;;;;51.15;36.53;;;;;;;18.90;81.70;99744.50;5044603;28;20134;-77
2021/06/17 00:52:38;;;;;;;54.15;37.92;;;;;;;18.87;81.66;99751.69;5044772;28;20033;-77
2021/06/17 00:55:04;;;;;;;60.97;40.85;;;;;;;18.90;81.79;99762.19;5037084;28;20379;-77
2021/06/17 00:57:30;;;;;;;55.42;38.05;;;;;;;18.94;81.57;99763.09;5045848;28;20029;-77
2021/06/17 00:59:55;;;;;;;51.15;35.08;;;;;;;18.98;80.98;99772.41;5035181;28;20493;-77
2021/06/17 01:02:21;;;;;;;52.20;35.85;;;;;;;18.99;80.88;99767.59;5052829;28;20030;-77
2021/06/17 01:04:46;;;;;;;50.40;35.40;;;;;;;19.03;80.41;99756.41;5045239;28;20485;-77
2021/06/17 01:07:12;;;;;;;57.00;37.40;;;;;;;19.02;80.50;99746.34;5041398;28;20033;-77
2021/06/17 01:10:02;;;;;;;64.90;40.03;;;;;;;18.95;81.77;99747.03;5033229;28;20025;-77
2021/06/17 01:12:36;;;;;;;57.15;37.83;;;;;;;18.96;81.04;99737.38;5044788;28;20056;-76
2021/06/17 01:15:06;;;;;;;55.47;37.67;;;;;;;18.95;80.72;99736.59;5049561;28;20482;-77
2021/06/17 01:17:37;;;;;;;55.47;37.05;;;;;;;18.99;80.56;99739.47;5032787;28;20043;-77
2021/06/17 01:20:07;;;;;;;52.55;35.45;;;;;;;18.97;80.59;99734.22;5028625;28;20041;-71
2021/06/17 01:22:52;;;;;;;52.17;35.60;;;;;;;19.03;81.06;99728.28;5044682;28;20083;-72
2021/06/17 01:25:54;;;;;;;57.17;35.53;;;;;;;19.03;80.68;99725.47;5044954;28;20058;-72
2021/06/17 01:28:19;;;;;;;74.85;43.35;;;;;;;18.94;81.55;99726.53;5042330;28;20494;-72
2021/06/17 01:31:04;;;;;;;76.35;44.53;;;;;;;18.90;81.74;99725.63;5040318;28;20107;-72
2021/06/17 01:33:38;;;;;;;63.65;37.70;;;;;;;18.93;81.06;99733.31;5030504;28;20108;-72
2021/06/17 01:36:07;;;;;;;66.65;38.47;;;;;;;18.88;81.04;99733.59;5046448;28;21558;-72
2021/06/17 01:38:33;;;;;;;64.75;37.00;;;;;;;18.93;80.82;99732.50;5023590;28;20034;-72
2021/06/17 01:40:58;;;;;;;66.00;38.50;;;;;;;18.91;80.72;99729.22;5035209;28;20104;-72
2021/06/17 01:43:24;;;;;;;71.32;39.20;;;;;;;18.89;80.46;99728.81;5025997;28;20159;-72
2021/06/17 01:45:49;;;;;;;85.40;45.22;;;;;;;18.73;82.50;99720.41;5015370;28;20026;-72
2021/06/17 01:48:15;;;;;;;70.70;40.38;;;;;;;18.70;81.70;99726.75;5029232;28;20068;-72
2021/06/17 01:50:45;;;;;;;83.78;45.20;;;;;;;18.66;82.51;99735.09;5011238;28;20040;-72
2021/06/17 01:53:11;;;;;;;73.55;41.17;;;;;;;18.68;82.40;99743.19;5013377;28;20470;-72
2021/06/17 01:55:38;;;;;;;72.60;41.15;;;;;;;18.66;81.83;99745.53;5025795;28;20438;-72
2021/06/17 01:58:05;;;;;;;66.55;38.45;;;;;;;18.72;81.26;99749.69;5019998;28;20036;-72
2021/06/17 02:00:31;;;;;;;67.97;39.33;;;;;;;18.73;81.04;99746.50;5028564;28;20033;-72
2021/06/17 02:02:56;;;;;;;69.82;40.30;;;;;;;18.74;80.89;99744.53;5039888;28;20029;-72
2021/06/17 02:05:25;;;;;;;63.42;36.80;;;;;;;18.75;80.53;99741.38;5026615;28;20390;-72
2021/06/17 02:07:51;;;;;;;65.05;37.00;;;;;;;18.77;80.66;99738.19;5043567;28;20033;-72
2021/06/17 02:10:18;;;;;;;65.20;36.92;;;;;;;18.78;80.47;99736.19;5003331;28;20030;-72
2021/06/17 02:12:43;;;;;;;63.88;35.85;;;;;;;18.80;80.35;99726.19;5029035;28;20033;-72
2021/06/17 02:15:09;;;;;;;77.57;41.30;;;;;;;18.78;80.42;99719.28;5045335;28;20040;-72
2021/06/17 02:17:34;;;;;;;63.95;37.40;;;;;;;18.80;80.42;99716.94;5020368;28;20034;-72
2021/06/17 02:20:00;;;;;;;65.50;37.85;;;;;;;18.77;80.12;99710.06;5039400;28;20053;-72
2021/06/17 02:22:27;;;;;;;95.80;47.42;;;;;;;18.54;83.39;99715.56;5022869;28;20036;-72
2021/06/17 02:24:55;;;;;;;74.78;40.85;;;;;;;18.68;81.16;99712.25;5036449;28;20040;-72
2021/06/17 02:27:26;;;;;;;73.60;40.10;;;;;;;18.64;81.21;99720.59;5028636;28;20051;-72
2021/06/17 02:29:51;;;;;;;82.38;42.38;;;;;;;18.67;81.12;99719.06;5022600;28;24390;-72
2021/06/17 02:32:19;;;;;;;71.35;38.42;;;;;;;18.67;80.84;99708.63;5024351;28;20103;-72
2021/06/17 02:34:48;;;;;;;68.28;38.03;;;;;;;18.73;80.33;99711.97;5010291;28;20484;-72
2021/06/17 02:37:17;;;;;;;74.80;40.40;;;;;;;18.73;80.38;99706.34;5031509;28;20021;-72
2021/06/17 02:39:44;;;;;;;73.97;40.30;;;;;;;18.73;80.29;99703.53;5012294;28;20057;-72
2021/06/17 02:42:10;;;;;;;70.15;39.95;;;;;;;18.73;80.06;99689.47;5022562;28;20449;-72
2021/06/17 02:44:35;;;;;;;70.45;38.58;;;;;;;18.71;80.34;99680.56;5026956;28;20081;-72
2021/06/17 02:47:01;;;;;;;72.35;40.85;;;;;;;18.72;80.03;99683.03;5030542;28;20029;-72
2021/06/17 02:49:27;;;;;;;77.15;42.15;;;;;;;18.72;80.44;99680.22;5025559;28;20025;-72
2021/06/17 02:51:52;;;;;;;81.90;45.17;;;;;;;18.71;80.79;99670.13;5043304;28;20371;-72
2021/06/17 02:54:20;;;;;;;92.03;46.95;;;;;;;18.64;81.19;99674.81;5006094;28;20036;-72
2021/06/17 02:56:59;;;;;;;92.78;47.45;;;;;;;18.63;81.16;99661.91;5022199;28;20049;-71
2021/06/17 02:59:33;;;;;;;87.60;45.70;;;;;;;18.56;82.60;99661.78;5031709;28;20032;-71
2021/06/17 03:02:13;;;;;;;90.55;48.85;;;;;;;18.41;82.29;99641.75;5039196;28;20036;-71
2021/06/17 03:04:47;;;;;;;79.00;44.05;;;;;;;18.47;81.74;99637.50;5021742;28;20044;-71
2021/06/17 03:07:25;;;;;;;81.00;44.50;;;;;;;18.50;81.37;99638.75;5035200;28;20116;-71
2021/06/17 03:09:57;;;;;;;83.20;45.20;;;;;;;18.48;81.68;99630.69;5010868;28;20025;-71
2021/06/17 03:12:23;;;;;;;87.38;44.92;;;;;;;18.45;81.90;99631.41;5021079;28;20025;-71
2021/06/17 03:14:49;;;;;;;75.43;41.47;;;;;;;18.47;81.33;99634.69;5032170;28;20029;-71
2021/06/17 03:17:15;;;;;;;94.75;50.97;;;;;;;18.43;82.66;99636.59;5024535;28;20498;-71
2021/06/17 03:19:41;;;;;;;88.20;46.38;;;;;;;18.41;81.88;99641.75;5022371;28;20087;-71
2021/06/17 03:22:07;;;;;;;74.95;41.22;;;;;;;18.45;81.39;99644.66;5011853;28;20029;-71
2021/06/17 03:24:36;;;;;;;71.88;40.78;;;;;;;18.47;81.13;99642.28;5025582;28;20389;-71
2021/06/17 03:27:02;;;;;;;72.28;41.40;;;;;;;18.50;81.14;99635.94;5027068;28;20025;-70
2021/06/17 03:29:31;;;;;;;73.18;41.88;;;;;;;18.51;81.20;99641.19;5008323;28;20078;-71
2021/06/17 03:31:56;;;;;;;70.75;41.45;;;;;;;18.50;81.00;99642.38;5017662;28;20037;-71
2021/06/17 03:34:22;;;;;;;77.95;42.25;;;;;;;18.51;81.02;99644.00;5012503;28;20505;-71
2021/06/17 03:36:47;;;;;;;69.80;41.05;;;;;;;18.50;80.81;99642.38;5024570;28;20036;-71
2021/06/17 03:39:13;;;;;;;75.22;41.92;;;;;;;18.52;80.83;99633.56;5032259;28;20034;-71
2021/06/17 03:41:38;;;;;;;77.10;43.08;;;;;;;18.50;80.64;99625.50;5036959;28;20028;-71
2021/06/17 03:44:04;;;;;;;74.95;40.85;;;;;;;18.53;80.65;99629.56;5012324;28;20037;-71
2021/06/17 03:46:30;;;;;;;87.93;47.65;;;;;;;18.47;81.72;99620.63;5032609;28;20032;-71
2021/06/17 03:48:56;;;;;;;75.03;43.75;;;;;;;18.46;81.12;99620.97;5030423;28;20029;-71
2021/06/17 03:51:22;;;;;;;68.40;39.97;;;;;;;18.50;81.18;99624.69;5021432;28;20516;-71
2021/06/17 03:53:47;;;;;;;70.95;40.55;;;;;;;18.48;80.68;99635.50;5014759;28;20021;-71
2021/06/17 03:56:13;;;;;;;71.18;40.67;;;;;;;18.49;80.65;99637.09;5023339;28;20052;-71
2021/06/17 03:58:38;;;;;;;69.40;40.15;;;;;;;18.51;80.36;99637.56;5046363;28;20025;-71
2021/06/17 04:01:06;;;;;;;68.45;40.05;;;;;;;18.49;80.71;99637.91;5026131;28;20029;-71
2021/06/17 04:03:31;;;;;;;70.43;39.63;;;;;;;18.49;80.55;99635.09;5023925;28;20083;-71
2021/06/17 04:05:57;;;;;;;74.28;40.92;;;;;;;18.47;81.08;99634.69;5034867;28;20037;-71
2021/06/17 04:08:27;;;;;;;81.40;43.05;;;;;;;18.45;80.99;99628.59;5027805;28;20389;-71
2021/06/17 04:10:58;;;;;;;72.32;39.50;;;;;;;18.47;81.08;99642.28;5016987;28;20060;-71
2021/06/17 04:13:23;;;;;;;67.70;38.10;;;;;;;18.45;80.81;99644.66;5033382;28;20086;-71
2021/06/17 04:15:49;;;;;;;68.88;38.78;;;;;;;18.45;81.00;99645.47;5023826;28;20037;-71
2021/06/17 04:18:14;;;;;;;68.00;37.83;;;;;;;18.43;80.94;99653.44;5040653;28;20029;-71
2021/06/17 04:20:43;;;;;;;59.38;34.95;;;;;;;18.42;81.07;99665.88;5030812;28;20033;-71
2021/06/17 04:23:09;;;;;;;60.42;34.40;;;;;;;18.43;81.02;99686.38;5003346;28;20067;-71
2021/06/17 04:25:34;;;;;;;54.88;32.65;;;;;;;18.39;80.87;99689.13;5026260;28;20033;-71
2021/06/17 04:28:01;;;;;;;54.42;30.45;;;;;;;18.39;80.84;99689.13;5026990;28;20029;-70
2021/06/17 04:30:27;;;;;;;51.88;29.65;;;;;;;18.35;81.00;99685.41;5017704;28;20060;-70
2021/06/17 04:32:52;;;;;;;47.40;28.23;;;;;;;18.35;80.89;99685.41;5050395;28;20535;-70
2021/06/17 04:35:20;;;;;;;47.08;26.55;;;;;;;18.34;80.85;99677.34;5024365;28;20033;-70
2021/06/17 04:37:45;;;;;;;42.47;25.65;;;;;;;18.34;80.85;99680.97;5032705;28;20121;-70
2021/06/17 04:40:12;;;;;;;44.40;25.17;;;;;;;18.27;81.13;99677.97;5030342;28;20028;-70
2021/06/17 04:42:37;;;;;;;39.97;22.73;;;;;;;18.28;80.83;99676.81;5026300;28;20042;-70
2021/06/17 04:45:03;;;;;;;41.95;23.23;;;;;;;18.26;80.93;99677.16;5031394;28;20362;-70
2021/06/17 04:47:28;;;;;;;35.60;21.05;;;;;;;18.29;80.64;99675.63;5044484;28;20036;-71
2021/06/17 04:49:54;;;;;;;33.72;20.15;;;;;;;18.26;80.58;99673.53;5047311;28;20033;-70
2021/06/17 04:52:57;;;;;;;34.47;19.95;;;;;;;18.23;80.60;99677.09;5014012;28;20060;-71
2021/06/17 04:55:23;;;;;;;31.58;19.08;;;;;;;18.20;80.97;99689.88;5030757;28;20746;-71
2021/06/17 04:57:48;;;;;;;32.17;18.50;;;;;;;18.22;81.04;99693.16;5037806;28;20037;-71
2021/06/17 05:00:14;;;;;;;28.52;17.88;;;;;;;18.20;80.86;99698.31;5025879;28;20101;-71
2021/06/17 05:02:40;;;;;;;29.63;16.95;;;;;;;18.20;80.74;99711.56;5027574;28;20064;-71
2021/06/17 05:05:16;;;;;;;30.13;16.73;;;;;;;18.20;80.97;99706.75;5055177;28;20036;-71
2021/06/17 05:12:54;;;;;;;26.67;16.08;;;;;;;18.21;80.72;99719.59;5029350;28;20026;-71
2021/06/17 05:15:20;;;;;;;26.42;15.40;;;;;;;18.21;80.54;99727.22;5015439;28;20037;-71
2021/06/17 05:17:46;;;;;;;25.30;14.70;;;;;;;18.22;80.55;99726.03;5021189;28;20036;-71
2021/06/17 05:20:12;;;;;;;22.90;14.10;;;;;;;18.18;80.32;99728.75;5019573;28;20127;-70
2021/06/17 05:22:39;;;;;;;24.38;14.00;;;;;;;18.23;80.60;99727.69;5040694;28;20429;-70
2021/06/17 05:25:04;;;;;;;22.27;13.55;;;;;;;18.20;80.44;99734.03;5007523;28;20064;-70
2021/06/17 05:27:30;;;;;;;23.30;13.05;;;;;;;18.19;80.45;99738.84;5029569;28;20025;-71
2021/06/17 05:29:56;;;;;;;19.75;12.52;;;;;;;18.24;80.32;99738.53;5025265;28;20119;-71
2021/06/17 05:32:24;;;;;;;19.75;12.10;;;;;;;18.24;80.37;99735.72;5016750;28;20017;-70
2021/06/17 05:34:49;;;;;;;22.55;13.00;;;;;;;18.24;80.44;99740.53;5012355;28;20107;-71
2021/06/17 05:37:15;;;;;;;21.15;12.75;;;;;;;18.27;80.36;99756.66;5026338;28;20029;-71
2021/06/17 05:39:40;;;;;;;21.88;12.45;;;;;;;18.25;80.38;99759.88;5047285;28;20041;-70
2021/06/17 05:42:07;;;;;;;21.10;12.27;;;;;;;18.26;80.62;99761.47;5040949;28;20141;-71
2021/06/17 05:44:32;;;;;;;20.63;11.68;;;;;;;18.29;80.63;99768.38;5030958;28;20047;-71
2021/06/17 05:46:58;;;;;;;18.88;11.98;;;;;;;18.27;80.66;99768.72;5032157;28;20033;-70
2021/06/17 05:49:24;;;;;;;19.48;11.38;;;;;;;18.29;80.27;99774.81;5048842;28;20409;-71
2021/06/17 05:51:50;;;;;;;22.00;12.57;;;;;;;18.30;80.48;99772.81;5048064;28;20425;-71
2021/06/17 05:54:16;;;;;;;18.10;11.20;;;;;;;18.30;81.01;99773.66;5024026;28;20034;-70
2021/06/17 05:56:42;;;;;;;19.45;11.60;;;;;;;18.33;80.91;99771.25;5047549;28;20064;-70
2021/06/17 05:59:07;;;;;;;18.00;11.15;;;;;;;18.34;80.41;99779.34;5029889;28;20033;-70
2021/06/17 06:01:33;;;;;;;16.38;10.43;;;;;;;18.34;80.98;99779.34;4991102;28;20043;-70
2021/06/17 06:03:58;;;;;;;15.38;10.35;;;;;;;18.38;80.38;99776.59;5023587;28;20026;-70
2021/06/17 06:06:24;;;;;;;16.90;10.70;;;;;;;18.38;80.34;99774.59;5031155;28;20029;-70
2021/06/17 06:08:49;;;;;;;15.50;10.63;;;;;;;18.40;80.30;99768.63;5037114;28;20034;-71
2021/06/17 06:11:15;;;;;;;16.88;10.65;;;;;;;18.38;80.50;99777.41;5039059;28;20120;-70
2021/06/17 06:13:40;;;;;;;15.00;10.15;;;;;;;18.40;80.29;99777.06;5024873;28;20024;-71
2021/06/17 06:16:06;;;;;;;15.85;10.20;;;;;;;18.44;80.46;99787.22;5008132;28;20025;-70
2021/06/17 06:18:32;;;;;;;16.88;10.95;;;;;;;18.50;80.66;99787.75;5026567;28;20040;-82
2021/06/17 06:20:58;;;;;;;16.90;10.80;;;;;;;18.49;81.06;99786.13;5010228;28;20041;-78
2021/06/17 06:23:24;;;;;;;17.35;10.40;;;;;;;18.51;80.55;99784.56;5007501;28;20466;-78
2021/06/17 06:25:50;;;;;;;21.00;10.98;;;;;;;18.52;80.66;99780.56;5026779;28;20040;-78
2021/06/17 06:28:16;;;;;;;18.15;11.68;;;;;;;18.51;80.46;99784.56;5003479;28;20033;-78
2021/06/17 06:30:42;;;;;;;16.50;10.40;;;;;;;18.53;80.54;99792.66;5051796;28;20033;-78
2021/06/17 06:33:08;;;;;;;17.08;10.65;;;;;;;18.58;80.98;99800.78;5042968;28;20032;-75
2021/06/17 06:35:33;;;;;;;20.42;11.90;;;;;;;18.60;80.82;99798.44;5039679;28;20037;-76
2021/06/17 06:37:59;;;;;;;16.85;10.02;;;;;;;18.62;80.99;99806.50;5024617;28;20485;-76
2021/06/17 06:40:25;;;;;;;20.67;12.18;;;;;;;18.65;81.55;99806.59;5023054;28;20056;-75
2021/06/17 06:42:51;;;;;;;22.63;11.38;;;;;;;18.66;81.87;99819.47;5038655;28;20052;-77
2021/06/17 06:45:17;;;;;;;23.10;12.60;;;;;;;18.70;81.69;99816.75;5028857;28;20393;-78
2021/06/17 06:47:42;;;;;;;23.50;12.32;;;;;;;18.70;81.22;99817.56;4999108;28;20025;-77
2021/06/17 06:50:09;;;;;;;21.60;12.30;;;;;;;18.69;80.93;99810.31;5045834;28;20060;-77
2021/06/17 06:52:34;;;;;;;19.60;11.95;;;;;;;18.65;81.01;99815.03;5040595;28;20525;-77
2021/06/17 06:55:00;;;;;;;20.27;12.13;;;;;;;18.66;80.96;99802.59;5038226;28;20146;-77
2021/06/17 06:57:26;;;;;;;23.85;13.88;;;;;;;18.63;82.36;99791.25;5048324;28;20036;-77
2021/06/17 06:59:52;;;;;;;22.85;13.98;;;;;;;18.64;81.80;99792.91;5037766;28;20026;-77
2021/06/17 07:02:17;;;;;;;18.30;12.13;;;;;;;18.62;81.23;99801.69;5027156;28;20055;-77
2021/06/17 07:04:43;;;;;;;17.45;11.30;;;;;;;18.59;80.95;99801.63;5025833;28;20022;-77
2021/06/17 07:07:09;;;;;;;24.83;13.60;;;;;;;18.57;82.08;99812.41;5028951;28;20076;-77
2021/06/17 07:09:34;;;;;;;24.45;14.32;;;;;;;18.44;83.51;99795.66;5045993;28;20029;-77
2021/06/17 07:12:02;;;;;;;21.42;12.90;;;;;;;18.44;83.02;99786.38;5026339;28;20032;-77
2021/06/17 07:14:28;;;;;;;17.08;11.40;;;;;;;18.42;82.85;99792.41;5024497;28;20033;-77
2021/06/17 07:16:54;;;;;;;16.30;10.60;;;;;;;18.44;82.10;99792.00;5031062;28;20604;-77
2021/06/17 07:19:19;;;;;;;18.48;11.23;;;;;;;18.45;82.57;99802.09;5023610;28;20469;-77
2021/06/17 07:21:45;;;;;;;17.58;11.43;;;;;;;18.45;82.14;99797.28;5033761;28;20622;-77
2021/06/17 07:24:10;;;;;;;16.65;10.43;;;;;;;18.45;81.69;99813.34;5027778;28;20029;-77
2021/06/17 07:26:36;;;;;;;15.38;10.32;;;;;;;18.45;81.63;99821.78;5017523;28;20045;-77
2021/06/17 07:29:02;;;;;;;17.35;10.15;;;;;;;18.43;81.51;99824.94;5045799;28;20036;-78
2021/06/17 07:31:28;;;;;;;18.70;9.82;;;;;;;18.44;81.49;99826.59;5039579;28;20037;-77
2021/06/17 07:33:54;;;;;;;16.98;10.65;;;;;;;18.47;81.91;99828.66;5044437;28;20036;-78
2021/06/17 07:36:20;;;;;;;18.60;9.93;;;;;;;18.47;81.56;99825.84;5034903;28;20038;-78
2021/06/17 07:38:45;;;;;;;13.65;8.40;;;;;;;18.50;81.07;99833.56;5045064;28;20033;-78
2021/06/17 07:41:11;;;;;;;14.10;8.55;;;;;;;18.52;81.29;99836.81;5047351;28;20036;-79
2021/06/17 07:43:37;;;;;;;12.93;8.50;;;;;;;18.56;80.95;99841.72;5039049;28;20038;-78
2021/06/17 07:46:04;;;;;;;20.52;12.48;;;;;;;18.44;83.23;99832.22;5024446;28;20128;-78
2021/06/17 07:48:31;;;;;;;17.23;10.63;;;;;;;18.42;83.62;99840.19;5033837;28;20106;-78
2021/06/17 07:50:58;;;;;;;17.73;10.70;;;;;;;18.40;83.63;99848.16;5025142;28;20041;-77
2021/06/17 07:53:24;;;;;;;19.27;10.82;;;;;;;18.37;83.67;99860.13;5046762;28;20532;-78
2021/06/17 07:55:50;;;;;;;15.27;8.95;;;;;;;18.41;82.87;99869.47;5025472;28;20046;-78
2021/06/17 07:58:17;;;;;;;12.55;8.50;;;;;;;18.44;82.04;99868.75;5039032;28;20100;-77
2021/06/17 08:00:43;;;;;;;13.75;8.07;;;;;;;18.47;81.59;99876.47;5021822;28;20030;-77
2021/06/17 08:03:09;;;;;;;11.55;7.43;;;;;;;18.49;81.36;99882.53;5026096;28;20033;-77
2021/06/17 08:05:35;;;;;;;16.73;8.43;;;;;;;18.51;81.19;99885.78;5003087;28;20036;-77
2021/06/17 08:08:02;;;;;;;13.70;8.38;;;;;;;18.51;81.88;99882.97;5033390;28;20033;-77
2021/06/17 08:10:28;;;;;;;13.32;7.22;;;;;;;18.53;81.51;99877.81;5056633;28;20497;-77
2021/06/17 08:12:54;;;;;;;12.07;7.25;;;;;;;18.55;81.26;99874.63;5019967;28;20026;-77
2021/06/17 08:15:22;;;;;;;11.68;6.90;;;;;;;18.59;81.03;99875.56;5048698;28;20053;-77
2021/06/17 08:17:49;;;;;;;10.90;7.10;;;;;;;18.58;81.14;99867.47;5045674;28;20033;-77
2021/06/17 08:20:15;;;;;;;10.85;6.70;;;;;;;18.61;81.37;99875.16;5031730;28;20363;-77
2021/06/17 08:22:42;;;;;;;10.93;6.28;;;;;;;18.63;81.81;99878.44;5059552;28;20038;-77
2021/06/17 08:25:09;;;;;;;12.70;6.95;;;;;;;18.63;81.61;99881.25;5007064;28;20116;-77
2021/06/17 08:27:35;;;;;;;15.60;9.30;;;;;;;18.61;83.42;99886.41;5029266;28;20041;-77
2021/06/17 08:30:03;;;;;;;11.57;7.70;;;;;;;18.65;81.96;99881.72;5044767;28;20456;-77
2021/06/17 08:32:29;;;;;;;12.00;7.90;;;;;;;18.69;83.52;99886.25;5040108;28;20064;-77
2021/06/17 08:34:55;;;;;;;11.77;7.63;;;;;;;18.71;82.82;99877.44;5036264;28;20029;-77
2021/06/17 08:37:22;;;;;;;15.60;9.00;;;;;;;18.62;85.23;99880.44;5010838;28;20075;-77
2021/06/17 08:39:53;;;;;;;11.18;6.85;;;;;;;18.64;83.61;99872.47;5042551;28;20030;-77
2021/06/17 08:42:19;;;;;;;10.48;6.30;;;;;;;18.68;83.19;99878.19;5048242;28;20021;-77
2021/06/17 08:44:45;;;;;;;11.10;6.15;;;;;;;18.72;82.73;99877.09;5040557;28;20397;-77
2021/06/17 08:47:11;;;;;;;8.85;5.22;;;;;;;18.74;83.07;99876.75;5050363;28;20477;-77
2021/06/17 08:49:37;;;;;;;8.98;5.15;;;;;;;18.76;83.40;99874.38;5045593;28;20029;-77
2021/06/17 08:52:04;;;;;;;9.50;5.22;;;;;;;18.80;84.50;99871.66;5023168;28;20494;-77
2021/06/17 08:54:30;;;;;;;8.90;5.65;;;;;;;18.81;85.13;99871.31;5041684;28;20029;-77
2021/06/17 08:56:56;;;;;;;7.72;4.50;;;;;;;18.87;84.47;99885.91;5041529;28;20496;-77
2021/06/17 08:59:34;;;;;;;8.88;4.53;;;;;;;18.89;84.59;99884.34;5028990;28;20125;-77
2021/06/17 09:02:04;;;;;;;10.75;4.65;;;;;;;18.91;84.41;99887.59;5063170;28;20033;-77
2021/06/17 09:04:30;;;;;;;8.35;4.15;;;;;;;18.97;84.04;99893.75;5046630;28;20037;-76
2021/06/17 09:07:12;;;;;;;9.23;5.05;;;;;;;18.92;84.81;99880.00;5031250;28;20040;-76
2021/06/17 09:09:47;;;;;;;8.57;4.82;;;;;;;18.92;84.63;99880.81;5048448;28;20032;-76
2021/06/17 09:12:17;;;;;;;8.13;4.45;;;;;;;18.95;84.62;99877.25;5035185;28;20033;-76
2021/06/17 09:14:53;;;;;;;7.30;4.22;;;;;;;18.96;85.04;99880.88;5029030;28;20460;-73
2021/06/17 09:17:19;;;;;;;8.07;4.60;;;;;;;18.97;84.65;99879.69;5045228;28;20057;-72
2021/06/17 09:19:50;;;;;;;6.93;4.13;;;;;;;18.98;84.47;99884.97;5048913;28;20034;-72
2021/06/17 09:22:18;;;;;;;6.85;3.80;;;;;;;19.00;84.15;99880.97;5053017;28;20400;-72
2021/06/17 09:24:46;;;;;;;8.77;4.22;;;;;;;19.01;84.19;99879.78;5020343;28;20112;-72
2021/06/17 09:27:29;;;;;;;5.55;3.45;;;;;;;19.01;83.63;99885.44;5005980;28;20028;-72
2021/06/17 09:30:18;;;;;;;6.80;4.43;;;;;;;19.02;83.63;99884.22;5036163;28;20026;-72
2021/06/17 09:32:50;;;;;;;7.82;4.72;;;;;;;19.00;83.63;99879.00;5026969;28;20028;-72
2021/06/17 09:35:23;;;;;;;7.93;4.77;;;;;;;19.01;83.84;99880.59;5009800;28;20040;-72
2021/06/17 09:37:49;;;;;;;7.30;4.93;;;;;;;19.00;84.74;99878.16;5044021;28;20109;-72
2021/06/17 09:40:26;;;;;;;5.95;4.13;;;;;;;18.98;84.14;99870.91;5029189;28;20071;-72
2021/06/17 09:42:53;;;;;;;5.38;3.83;;;;;;;19.03;83.54;99880.22;5033848;28;20036;-72
2021/06/17 09:45:21;;;;;;;4.90;3.40;;;;;;;19.05;83.76;99880.69;5051049;28;20036;-72
2021/06/17 09:47:48;;;;;;;6.07;3.67;;;;;;;19.08;84.89;99880.75;5031898;28;20060;-72
2021/06/17 09:50:25;;;;;;;5.82;3.40;;;;;;;19.13;83.75;99879.66;5030200;28;20425;-72
2021/06/17 09:52:52;;;;;;;4.50;2.90;;;;;;;19.18;84.25;99890.66;5029540;28;20029;-72
2021/06/17 09:55:37;;;;;;;3.97;2.40;;;;;;;19.21;84.68;99892.72;5022231;28;20077;-72
2021/06/17 09:58:33;;;;;;;4.07;2.10;;;;;;;19.30;84.13;99887.69;5037308;28;20038;-72
2021/06/17 10:01:01;;;;;;;4.95;2.13;;;;;;;19.39;83.00;99893.94;5027393;28;20117;-72
2021/06/17 10:03:27;;;;;;;3.90;2.28;;;;;;;19.45;83.11;99899.28;5043081;28;20033;-72
2021/06/17 10:05:54;;;;;;;3.50;2.05;;;;;;;19.50;82.26;99902.63;5022751;28;20151;-72
2021/06/17 10:08:20;;;;;;;4.43;2.25;;;;;;;19.58;81.82;99904.38;5028729;28;20021;-72
2021/06/17 10:10:47;;;;;;;5.80;2.47;;;;;;;19.58;81.51;99897.94;5021252;28;20029;-77
2021/06/17 10:13:15;;;;;;;4.47;2.33;;;;;;;19.50;81.66;99898.97;5029686;28;20033;-77
2021/06/17 10:15:41;;;;;;;4.20;1.83;;;;;;;19.47;81.53;99900.53;5025423;28;20041;-77
2021/06/17 10:18:06;;;;;;;3.45;1.90;;;;;;;19.46;81.41;99901.72;5023372;28;20034;-77
2021/06/17 10:20:32;;;;;;;4.75;1.92;;;;;;;19.51;81.11;99901.44;5043698;28;20033;-77
2021/06/17 10:22:58;;;;;;;4.03;2.08;;;;;;;19.45;81.32;99899.28;5027408;28;20441;-78
2021/06/17 10:25:30;;;;;;;3.03;1.60;;;;;;;19.55;81.04;99904.31;4993772;28;20079;-77
2021/06/17 10:28:01;;;;;;;4.13;1.50;;;;;;;19.61;80.55;99906.50;5046515;28;20102;-77
2021/06/17 10:30:39;;;;;;;5.72;1.83;;;;;;;19.68;80.20;99897.41;5039237;28;20065;-77
2021/06/17 10:33:05;;;;;;;3.58;1.90;;;;;;;19.73;80.79;99905.56;5032735;28;20041;-77
2021/06/17 10:35:30;;;;;;;3.03;1.55;;;;;;;19.78;80.10;99901.59;5039026;28;20060;-77
2021/06/17 10:38:00;;;;;;;4.50;1.90;;;;;;;19.75;80.58;99896.72;5035724;28;20033;-77
2021/06/17 10:40:26;;;;;;;3.00;1.95;;;;;;;19.89;80.92;99907.47;5025141;28;20037;-77
2021/06/17 10:42:53;;;;;;;3.40;2.17;;;;;;;19.95;80.57;99911.63;5019645;28;20033;-76
2021/06/17 10:45:42;;;;;;;3.83;1.67;;;;;;;20.03;80.21;99907.75;5021202;28;20056;-76
2021/06/17 10:48:08;;;;;;;5.10;2.38;;;;;;;20.07;79.81;99915.09;5020973;28;20038;-77
2021/06/17 10:50:51;;;;;;;4.55;3.05;;;;;;;20.08;79.51;99918.72;5038820;28;20025;-76
2021/06/17 10:53:35;;;;;;;7.85;3.25;;;;;;;20.14;79.59;99922.84;5038025;28;20732;-74
2021/06/17 10:56:05;;;;;;;4.88;2.60;;;;;;;20.25;79.15;99926.72;5042052;28;20188;-73
2021/06/17 10:58:43;;;;;;;5.22;3.05;;;;;;;20.40;78.97;99924.19;5040148;28;20035;-74
2021/06/17 11:01:31;;;;;;;4.93;3.10;;;;;;;20.52;78.76;99927.59;5037140;28;20048;-73
2021/06/17 11:04:04;;;;;;;5.68;3.38;;;;;;;20.57;77.96;99932.16;5045461;28;20060;-74
2021/06/17 11:06:48;;;;;;;5.45;3.50;;;;;;;20.51;78.09;99933.66;5040593;28;20374;-74
2021/06/17 11:09:45;;;;;;;6.70;3.88;;;;;;;20.49;78.09;99925.53;5031090;28;20040;-74
2021/06/17 11:12:13;;;;;;;4.65;2.78;;;;;;;20.59;77.43;99931.78;5046765;28;20079;-74
2021/06/17 11:14:42;;;;;;;4.90;2.95;;;;;;;20.57;77.84;99920.88;5039191;28;20041;-74
2021/06/17 11:17:35;;;;;;;6.13;2.78;;;;;;;20.67;77.23;99930.72;5032976;28;20394;-74
2021/06/17 11:20:10;;;;;;;3.55;2.92;;;;;;;20.62;77.63;99928.22;5026313;28;20046;-74
2021/06/17 11:22:57;;;;;;;4.50;2.45;;;;;;;20.65;77.34;99931.09;5038502;28;20116;-74
2021/06/17 11:25:22;;;;;;;5.47;2.33;;;;;;;20.67;77.38;99930.72;5022039;28;20425;-74
2021/06/17 11:28:01;;;;;;;5.45;3.20;;;;;;;20.42;78.22;99933.88;5024272;28;20049;-74
2021/06/17 11:30:39;;;;;;;5.68;2.58;;;;;;;20.40;78.06;99933.44;5039642;28;20038;-74
2021/06/17 11:33:19;;;;;;;3.15;2.22;;;;;;;20.47;77.86;99939.19;5036277;28;20426;-74